createdAt,value
2019-01-11T06:55:07.530Z,1014.26
2019-01-11T06:56:07.523Z,1014.31
2019-01-11T06:57:07.502Z,1014.28
2019-01-11T06:58:07.506Z,1014.28
2019-01-11T06:59:07.476Z,1014.19
2019-01-11T07:00:07.479Z,1014.24
2019-01-11T07:01:07.447Z,1014.21
2019-01-11T07:02:07.458Z,1014.25
2019-01-11T07:03:09.102Z,1014.29
2019-01-11T07:04:07.452Z,1014.33
2019-01-11T07:05:07.410Z,1014.39
2019-01-11T07:06:07.554Z,1014.40
2019-01-11T07:07:07.389Z,1014.34
2019-01-11T07:08:07.377Z,1014.38
2019-01-11T07:09:07.386Z,1014.39
2019-01-11T07:10:07.352Z,1014.39
2019-01-11T07:11:07.434Z,1014.32
2019-01-11T07:12:07.344Z,1014.38
2019-01-11T07:13:07.328Z,1014.36
2019-01-11T07:14:07.326Z,1014.37
2019-01-11T07:15:07.360Z,1014.37
2019-01-11T07:16:07.311Z,1014.42
2019-01-11T07:17:07.307Z,1014.37
2019-01-11T07:18:07.294Z,1014.36
2019-01-11T07:19:07.329Z,1014.31
2019-01-11T07:20:07.238Z,1014.31
2019-01-11T07:21:07.262Z,1014.30
2019-01-11T07:22:07.228Z,1014.25
2019-01-11T07:23:07.205Z,1014.25
2019-01-11T07:24:07.212Z,1014.27
2019-01-11T07:25:07.212Z,1014.29
2019-01-11T07:26:07.176Z,1014.30
2019-01-11T07:27:07.156Z,1014.29
2019-01-11T07:28:13.532Z,1014.30
2019-01-11T07:29:28.635Z,1014.27
2019-01-11T07:30:28.617Z,1014.29
2019-01-11T07:31:28.616Z,1014.33
2019-01-11T07:32:28.647Z,1014.32
2019-01-11T07:33:28.571Z,1014.31
2019-01-11T07:34:28.554Z,1014.31
2019-01-11T07:35:28.793Z,1014.31
2019-01-11T07:36:28.553Z,1014.37
2019-01-11T07:37:28.526Z,1014.39
2019-01-11T07:38:28.552Z,1014.39
2019-01-11T07:39:28.494Z,1014.36
2019-01-11T07:40:28.495Z,1014.42
2019-01-11T07:41:28.501Z,1014.34
2019-01-11T07:42:28.539Z,1014.35
2019-01-11T07:43:28.475Z,1014.35
2019-01-11T07:44:28.467Z,1014.32
2019-01-11T07:45:28.427Z,1014.34
2019-01-11T07:46:28.422Z,1014.34
2019-01-11T07:47:28.429Z,1014.31
2019-01-11T07:48:28.480Z,1014.41
2019-01-11T07:49:28.414Z,1014.39
2019-01-11T07:50:28.492Z,1014.38
2019-01-11T07:51:28.382Z,1014.37
2019-01-11T07:52:28.353Z,1014.42
2019-01-11T07:53:28.340Z,1014.36
2019-01-11T07:54:28.388Z,1014.39
2019-01-11T07:55:28.393Z,1014.32
2019-01-11T07:56:28.358Z,1014.34
2019-01-11T07:57:28.418Z,1014.34
2019-01-11T07:58:28.327Z,1014.32
2019-01-11T07:59:28.365Z,1014.36
2019-01-11T08:00:33.833Z,1014.36
2019-01-11T08:01:28.283Z,1014.32
2019-01-11T08:02:28.286Z,1014.31
2019-01-11T08:03:28.265Z,1014.29
2019-01-11T08:04:28.388Z,1014.30
2019-01-11T08:05:28.232Z,1014.29
2019-01-11T08:06:28.272Z,1014.31
2019-01-11T08:08:55.184Z,1014.31
